Time;durP1;ratioP1;P1;durP2;ratioP2;P2;SDS_P1;SDS_P2;PMS_P1;PMS_P2;Temp;Humidity;BMP_temperature;BMP_pressure;BME280_temperature;BME280_humidity;BME280_pressure;Samples;Min_cycle;Max_cycle;Signal;HPM_P1;HPM_P2
2023/03/13 00:00:49;;;;;;;15.57;3.00;;;;;;;;;;6192890;23;20001;-81
2023/03/13 00:03:16;;;;;;;13.27;3.38;;;;;;;;;;6192618;23;20052;-81
2023/03/13 00:05:55;;;;;;;22.25;4.60;;;;;;;;;;6192130;23;20423;-81
2023/03/13 00:08:21;;;;;;;21.23;4.00;;;;;;;;;;6192431;23;20008;-81
2023/03/13 00:10:47;;;;;;;15.25;3.90;;;;;;;;;;6191616;23;20008;-81
2023/03/13 00:13:13;;;;;;;20.23;4.07;;;;;;;;;;6192125;23;20051;-81
2023/03/13 00:15:39;;;;;;;20.42;3.72;;;;;;;;;;6164551;23;20015;-81
2023/03/13 00:18:05;;;;;;;12.88;3.25;;;;;;;;;;6191238;23;20028;-81
2023/03/13 00:20:31;;;;;;;21.52;3.55;;;;;;;;;;6191034;23;20441;-81
2023/03/13 00:22:57;;;;;;;13.93;3.13;;;;;;;;;;6190746;23;20008;-81
2023/03/13 00:25:23;;;;;;;18.70;3.67;;;;;;;;;;6190785;23;20001;-81
2023/03/13 00:27:49;;;;;;;23.83;3.55;;;;;;;;;;6190770;23;20055;-81
2023/03/13 00:30:15;;;;;;;17.27;3.58;;;;;;;;;;6190429;23;20068;-81
2023/03/13 00:32:46;;;;;;;15.98;4.45;;;;;;;;;;6190166;23;20447;-81
2023/03/13 00:35:12;;;;;;;11.98;3.80;;;;;;;;;;6190004;23;20001;-81
2023/03/13 00:37:39;;;;;;;17.95;4.20;;;;;;;;;;6190461;23;20339;-81
2023/03/13 00:40:06;;;;;;;18.45;3.97;;;;;;;;;;6190873;23;20073;-81
2023/03/13 00:42:32;;;;;;;21.77;3.97;;;;;;;;;;6190499;23;20404;-81
2023/03/13 00:44:58;;;;;;;18.33;5.75;;;;;;;;;;6189303;23;20056;-81
2023/03/13 00:47:27;;;;;;;14.48;4.38;;;;;;;;;;6190100;23;20037;-81
2023/03/13 00:50:19;;;;;;;18.35;4.25;;;;;;;;;;6190529;23;20005;-81
2023/03/13 00:52:45;;;;;;;20.48;4.57;;;;;;;;;;6189662;23;20016;-81
2023/03/13 00:55:11;;;;;;;20.85;5.15;;;;;;;;;;6188646;23;20009;-80
2023/03/13 00:57:37;;;;;;;17.70;4.10;;;;;;;;;;6188543;23;20001;-80
2023/03/13 01:00:06;;;;;;;22.38;4.30;;;;;;;;;;6188832;23;20012;-80
2023/03/13 01:02:33;;;;;;;14.95;3.70;;;;;;;;;;6188575;23;20069;-80
2023/03/13 01:04:59;;;;;;;22.52;4.63;;;;;;;;;;6189004;23;20005;-80
2023/03/13 01:07:26;;;;;;;16.40;4.50;;;;;;;;;;6188666;23;19997;-80
2023/03/13 01:09:52;;;;;;;17.63;4.63;;;;;;;;;;6189594;23;20020;-80
2023/03/13 01:12:18;;;;;;;20.15;4.38;;;;;;;;;;6189243;23;20001;-81
2023/03/13 01:14:44;;;;;;;16.88;4.68;;;;;;;;;;6189065;23;20008;-81
2023/03/13 01:17:10;;;;;;;14.65;3.97;;;;;;;;;;6188975;23;20293;-81
2023/03/13 01:19:36;;;;;;;15.27;3.25;;;;;;;;;;6188709;23;20042;-81
2023/03/13 01:22:02;;;;;;;14.93;3.92;;;;;;;;;;6189095;23;20028;-80
2023/03/13 01:24:28;;;;;;;18.73;4.82;;;;;;;;;;6188389;23;20424;-80
2023/03/13 01:26:54;;;;;;;16.60;4.53;;;;;;;;;;6187991;23;20032;-80
2023/03/13 01:29:19;;;;;;;21.65;4.90;;;;;;;;;;6161624;23;20001;-80
2023/03/13 01:31:47;;;;;;;16.77;4.35;;;;;;;;;;6188067;23;20024;-79
2023/03/13 01:34:16;;;;;;;17.77;4.30;;;;;;;;;;6187666;23;20001;-80
2023/03/13 01:36:42;;;;;;;21.00;4.40;;;;;;;;;;6187673;23;20464;-79
2023/03/13 01:39:08;;;;;;;12.18;4.05;;;;;;;;;;6188785;23;20029;-80
2023/03/13 01:41:34;;;;;;;13.60;3.95;;;;;;;;;;6188341;23;19997;-80
2023/03/13 01:44:00;;;;;;;13.50;3.83;;;;;;;;;;6187881;23;20004;-80
2023/03/13 01:46:27;;;;;;;12.13;4.15;;;;;;;;;;6187472;23;20352;-80
2023/03/13 01:49:09;;;;;;;9.65;4.18;;;;;;;;;;6187850;23;20009;-80
2023/03/13 01:51:35;;;;;;;14.65;4.22;;;;;;;;;;6187534;23;20004;-79
2023/03/13 01:54:01;;;;;;;14.73;4.40;;;;;;;;;;6187577;23;20001;-80
2023/03/13 01:56:50;;;;;;;12.05;4.20;;;;;;;;;;6187888;23;20075;-79
2023/03/13 01:59:18;;;;;;;21.73;4.40;;;;;;;;;;6172270;23;20316;-79
2023/03/13 02:01:44;;;;;;;9.85;4.03;;;;;;;;;;6187142;23;20009;-79
2023/03/13 02:04:11;;;;;;;12.60;4.07;;;;;;;;;;6187449;23;20068;-80
2023/03/13 02:06:38;;;;;;;12.63;4.60;;;;;;;;;;6187248;23;20005;-80
2023/03/13 02:09:10;;;;;;;12.88;4.03;;;;;;;;;;6189090;23;20001;-80
2023/03/13 02:11:54;;;;;;;14.20;4.05;;;;;;;;;;6189558;23;20467;-79
2023/03/13 02:14:25;;;;;;;11.88;4.78;;;;;;;;;;6189591;23;20371;-80
2023/03/13 02:17:06;;;;;;;10.43;3.88;;;;;;;;;;6189926;23;20001;-79
2023/03/13 02:19:39;;;;;;;9.57;3.85;;;;;;;;;;6189645;23;20044;-80
2023/03/13 02:22:24;;;;;;;10.52;3.85;;;;;;;;;;6189150;23;20327;-80
2023/03/13 02:25:13;;;;;;;9.13;4.20;;;;;;;;;;6189161;23;20011;-80
2023/03/13 02:27:40;;;;;;;12.20;4.20;;;;;;;;;;6189083;23;20005;-80
2023/03/13 02:30:08;;;;;;;6.88;4.30;;;;;;;;;;6189715;23;20068;-80
2023/03/13 02:32:35;;;;;;;9.40;3.53;;;;;;;;;;6189867;23;19997;-80
2023/03/13 02:35:07;;;;;;;7.50;3.35;;;;;;;;;;6189422;23;20393;-79
2023/03/13 02:37:33;;;;;;;5.95;3.28;;;;;;;;;;6189213;23;19997;-80
2023/03/13 02:40:01;;;;;;;6.88;3.70;;;;;;;;;;6189659;23;19997;-80
2023/03/13 02:42:27;;;;;;;9.20;3.58;;;;;;;;;;6189269;23;19997;-80
2023/03/13 02:44:54;;;;;;;9.25;3.95;;;;;;;;;;6188990;23;20414;-80
2023/03/13 02:47:21;;;;;;;11.75;3.90;;;;;;;;;;6200592;23;20016;-80
2023/03/13 02:49:47;;;;;;;7.63;3.75;;;;;;;;;;6207049;23;20004;-80
2023/03/13 02:52:27;;;;;;;5.90;3.33;;;;;;;;;;6206516;23;20001;-80
2023/03/13 02:54:56;;;;;;;6.78;3.33;;;;;;;;;;6206010;23;20076;-80
2023/03/13 02:57:23;;;;;;;6.03;2.72;;;;;;;;;;6194674;23;19993;-80
2023/03/13 02:59:49;;;;;;;4.40;3.13;;;;;;;;;;6194618;23;20013;-80
2023/03/13 03:02:14;;;;;;;8.73;3.70;;;;;;;;;;6193428;23;20020;-80
2023/03/13 03:04:40;;;;;;;6.38;3.40;;;;;;;;;;6193893;23;20516;-79
2023/03/13 03:07:08;;;;;;;8.25;4.00;;;;;;;;;;6192924;23;20001;-80
2023/03/13 03:09:37;;;;;;;5.78;3.53;;;;;;;;;;6192833;23;20387;-80
2023/03/13 03:12:03;;;;;;;4.82;3.17;;;;;;;;;;6166131;23;20009;-80
2023/03/13 03:14:29;;;;;;;4.43;2.53;;;;;;;;;;6192449;23;20001;-80
2023/03/13 03:16:55;;;;;;;8.07;3.00;;;;;;;;;;6192885;23;20004;-80
2023/03/13 03:19:21;;;;;;;4.10;2.90;;;;;;;;;;6166382;23;20008;-80
2023/03/13 03:21:48;;;;;;;4.13;2.78;;;;;;;;;;6192074;23;20001;-80
2023/03/13 03:24:14;;;;;;;5.45;3.10;;;;;;;;;;6164901;23;20001;-80
2023/03/13 03:26:40;;;;;;;3.72;2.58;;;;;;;;;;6191922;23;20362;-80
2023/03/13 03:29:09;;;;;;;3.50;2.35;;;;;;;;;;6192204;23;20028;-80
2023/03/13 03:31:36;;;;;;;3.35;2.53;;;;;;;;;;6191883;23;20083;-80
2023/03/13 03:34:02;;;;;;;2.83;2.30;;;;;;;;;;6191135;23;20005;-80
2023/03/13 03:36:28;;;;;;;3.60;2.70;;;;;;;;;;6164172;23;20012;-80
2023/03/13 03:38:54;;;;;;;3.22;2.55;;;;;;;;;;6191065;23;20019;-79
2023/03/13 03:41:20;;;;;;;5.95;3.65;;;;;;;;;;6191678;23;20438;-80
2023/03/13 03:43:46;;;;;;;5.70;3.88;;;;;;;;;;6191542;23;20017;-80
2023/03/13 03:46:13;;;;;;;7.07;4.40;;;;;;;;;;6191077;23;20008;-79
2023/03/13 03:48:39;;;;;;;6.93;4.47;;;;;;;;;;6190698;23;20005;-79
2023/03/13 03:51:09;;;;;;;7.85;4.95;;;;;;;;;;6164364;23;20012;-80
2023/03/13 03:53:35;;;;;;;;;;;;;;;;;;6164846;23;20008;-80
2023/03/13 03:56:01;;;;;;;9.18;4.70;;;;;;;;;;6191267;23;19900;-80
2023/03/13 03:58:27;;;;;;;11.98;5.43;;;;;;;;;;6190903;23;20013;-80
2023/03/13 04:00:55;;;;;;;9.52;5.28;;;;;;;;;;6191836;23;20474;-80
2023/03/13 04:03:21;;;;;;;12.50;4.97;;;;;;;;;;6191216;23;20396;-80
2023/03/13 04:05:47;;;;;;;11.32;4.60;;;;;;;;;;6191482;23;20032;-80
2023/03/13 04:08:13;;;;;;;12.15;4.68;;;;;;;;;;6191370;23;20029;-80
2023/03/13 04:10:39;;;;;;;16.17;5.63;;;;;;;;;;6191508;23;19997;-80
2023/03/13 04:13:05;;;;;;;12.38;4.38;;;;;;;;;;6190988;23;20020;-80
2023/03/13 04:15:31;;;;;;;14.20;4.13;;;;;;;;;;6190809;23;20024;-80
2023/03/13 04:17:57;;;;;;;14.75;4.70;;;;;;;;;;6191342;23;20017;-80
2023/03/13 04:20:23;;;;;;;15.55;4.50;;;;;;;;;;6191053;23;20301;-80
2023/03/13 04:22:49;;;;;;;13.95;4.43;;;;;;;;;;6190619;23;20085;-80
2023/03/13 04:25:15;;;;;;;13.45;4.25;;;;;;;;;;6164451;23;20005;-80
2023/03/13 04:27:41;;;;;;;10.52;3.30;;;;;;;;;;6190988;23;20088;-80
2023/03/13 04:30:08;;;;;;;12.10;3.67;;;;;;;;;;6190156;23;20407;-80
2023/03/13 04:32:34;;;;;;;8.38;3.92;;;;;;;;;;6190624;23;19997;-80
2023/03/13 04:35:06;;;;;;;12.48;4.45;;;;;;;;;;6190629;23;20420;-80
2023/03/13 04:37:32;;;;;;;15.35;4.43;;;;;;;;;;6164426;23;20005;-80
2023/03/13 04:39:58;;;;;;;12.82;3.17;;;;;;;;;;6190663;23;20008;-80
2023/03/13 04:42:24;;;;;;;16.15;4.20;;;;;;;;;;6191442;23;20052;-80
2023/03/13 04:44:50;;;;;;;12.05;3.22;;;;;;;;;;6190828;23;20008;-80
2023/03/13 04:47:16;;;;;;;16.42;3.85;;;;;;;;;;6190693;23;20005;-80
2023/03/13 04:49:42;;;;;;;15.48;4.15;;;;;;;;;;6164454;23;20005;-80
2023/03/13 04:52:08;;;;;;;12.05;3.63;;;;;;;;;;6190675;23;20071;-80
2023/03/13 04:54:34;;;;;;;14.73;4.22;;;;;;;;;;6189965;23;19993;-80
2023/03/13 04:57:00;;;;;;;10.15;3.63;;;;;;;;;;6190494;23;20073;-80
2023/03/13 04:59:26;;;;;;;16.35;4.00;;;;;;;;;;6189995;23;20017;-80
2023/03/13 05:01:52;;;;;;;11.15;3.08;;;;;;;;;;6190135;23;20005;-80
2023/03/13 05:04:18;;;;;;;9.57;4.05;;;;;;;;;;6189924;23;20001;-80
2023/03/13 05:06:44;;;;;;;11.48;2.60;;;;;;;;;;6190048;23;20020;-80
2023/03/13 05:09:10;;;;;;;7.63;2.38;;;;;;;;;;6190059;23;20001;-80
2023/03/13 05:11:36;;;;;;;9.40;3.35;;;;;;;;;;6189554;23;19997;-80
2023/03/13 05:14:27;;;;;;;12.48;3.08;;;;;;;;;;6189776;23;20005;-80
2023/03/13 05:17:00;;;;;;;6.55;2.95;;;;;;;;;;6191205;23;20009;-80
2023/03/13 05:19:26;;;;;;;9.70;3.20;;;;;;;;;;6190444;23;20008;-80
2023/03/13 05:21:52;;;;;;;7.88;2.83;;;;;;;;;;6163414;23;20032;-80
2023/03/13 05:24:18;;;;;;;6.95;3.67;;;;;;;;;;6189646;23;19992;-80
2023/03/13 05:26:44;;;;;;;12.57;3.60;;;;;;;;;;6190046;23;20001;-80
2023/03/13 05:29:10;;;;;;;9.02;3.53;;;;;;;;;;6190113;23;20047;-81
2023/03/13 05:31:35;;;;;;;10.70;3.88;;;;;;;;;;6188920;23;19997;-80
2023/03/13 05:34:01;;;;;;;12.63;3.67;;;;;;;;;;6188477;23;20404;-81
2023/03/13 05:36:27;;;;;;;13.30;4.20;;;;;;;;;;6188982;23;19997;-81
2023/03/13 05:38:53;;;;;;;14.18;4.75;;;;;;;;;;6189662;23;20032;-80
2023/03/13 05:41:19;;;;;;;18.00;4.32;;;;;;;;;;6189678;23;19993;-80
2023/03/13 05:43:45;;;;;;;13.20;3.47;;;;;;;;;;6188806;23;20367;-80
2023/03/13 05:46:11;;;;;;;12.57;3.50;;;;;;;;;;6188180;23;20001;-80
2023/03/13 05:48:37;;;;;;;13.00;4.00;;;;;;;;;;6161712;23;20005;-80
2023/03/13 05:51:03;;;;;;;10.63;5.18;;;;;;;;;;6188748;23;20001;-80
2023/03/13 05:53:29;;;;;;;14.85;4.43;;;;;;;;;;6189048;23;20008;-80
2023/03/13 05:55:55;;;;;;;19.58;5.28;;;;;;;;;;6188636;23;20005;-80
2023/03/13 05:58:21;;;;;;;10.77;3.53;;;;;;;;;;6187860;23;20116;-81
2023/03/13 06:00:48;;;;;;;16.42;4.35;;;;;;;;;;6188787;23;20001;-81
2023/03/13 06:03:14;;;;;;;17.10;4.40;;;;;;;;;;6189636;23;20001;-81
2023/03/13 06:05:40;;;;;;;13.68;3.55;;;;;;;;;;6189574;23;20028;-81
2023/03/13 06:08:07;;;;;;;11.73;2.75;;;;;;;;;;6189594;23;20108;-81
2023/03/13 06:10:33;;;;;;;16.33;4.18;;;;;;;;;;6189493;23;20330;-80
2023/03/13 06:12:59;;;;;;;19.15;3.75;;;;;;;;;;6188763;23;20036;-80
2023/03/13 06:15:25;;;;;;;15.65;3.20;;;;;;;;;;6189084;23;20009;-80
2023/03/13 06:17:51;;;;;;;11.05;2.90;;;;;;;;;;6189805;23;19997;-80
2023/03/13 06:20:17;;;;;;;12.15;3.42;;;;;;;;;;6189497;23;20001;-80
2023/03/13 06:22:43;;;;;;;12.85;3.30;;;;;;;;;;6189131;23;20058;-80
2023/03/13 06:25:09;;;;;;;14.40;3.00;;;;;;;;;;6189227;23;20001;-80
2023/03/13 06:27:35;;;;;;;9.85;2.92;;;;;;;;;;6189051;23;20486;-81
2023/03/13 06:30:01;;;;;;;16.08;3.47;;;;;;;;;;6188683;23;19993;-81
2023/03/13 06:32:27;;;;;;;13.73;2.97;;;;;;;;;;6162944;23;20005;-81
2023/03/13 06:34:53;;;;;;;12.25;3.10;;;;;;;;;;6190283;23;20027;-81
2023/03/13 06:37:19;;;;;;;14.23;3.25;;;;;;;;;;6190354;23;20017;-81
2023/03/13 06:39:45;;;;;;;13.10;3.08;;;;;;;;;;6191150;23;20011;-81
2023/03/13 06:42:13;;;;;;;14.07;3.45;;;;;;;;;;6190412;23;20541;-81
2023/03/13 06:44:40;;;;;;;17.83;3.63;;;;;;;;;;6163550;23;20012;-80
2023/03/13 06:47:06;;;;;;;14.68;3.75;;;;;;;;;;6191545;23;20051;-81
2023/03/13 06:49:32;;;;;;;14.18;3.08;;;;;;;;;;6190647;23;20011;-81
2023/03/13 06:51:58;;;;;;;13.23;3.22;;;;;;;;;;6189134;23;20004;-81
2023/03/13 06:54:24;;;;;;;15.05;3.58;;;;;;;;;;6192002;23;19997;-80
2023/03/13 06:56:51;;;;;;;12.55;3.50;;;;;;;;;;6196374;23;20001;-81
2023/03/13 06:59:19;;;;;;;10.07;2.85;;;;;;;;;;6192850;23;20568;-81
2023/03/13 07:01:47;;;;;;;9.68;2.63;;;;;;;;;;6193154;23;20012;-81
2023/03/13 07:04:13;;;;;;;12.88;3.20;;;;;;;;;;6194808;23;20084;-81
2023/03/13 07:06:39;;;;;;;15.98;3.35;;;;;;;;;;6194398;23;20009;-81
2023/03/13 07:09:05;;;;;;;15.52;3.25;;;;;;;;;;6195097;23;20001;-81
2023/03/13 07:11:31;;;;;;;15.23;3.90;;;;;;;;;;6201730;23;20001;-81
2023/03/13 07:14:00;;;;;;;12.48;3.63;;;;;;;;;;6201225;23;20024;-81
2023/03/13 07:16:27;;;;;;;15.48;3.28;;;;;;;;;;6200255;23;20005;-81
2023/03/13 07:18:53;;;;;;;8.65;2.97;;;;;;;;;;6198885;23;20076;-81
2023/03/13 07:21:19;;;;;;;10.88;2.85;;;;;;;;;;6197988;23;20004;-81
2023/03/13 07:23:52;;;;;;;13.95;2.75;;;;;;;;;;6197598;23;20112;-81
2023/03/13 07:26:19;;;;;;;8.73;3.08;;;;;;;;;;6197395;23;20004;-81
2023/03/13 07:28:45;;;;;;;14.55;4.13;;;;;;;;;;6196661;23;20427;-81
2023/03/13 07:31:12;;;;;;;18.70;4.07;;;;;;;;;;6196815;23;20005;-81
2023/03/13 07:33:38;;;;;;;12.13;2.90;;;;;;;;;;6195669;23;20001;-81
2023/03/13 07:36:04;;;;;;;10.93;2.67;;;;;;;;;;6195870;23;20108;-81
2023/03/13 07:38:30;;;;;;;11.43;3.05;;;;;;;;;;6196565;23;20034;-81
2023/03/13 07:40:56;;;;;;;11.50;3.10;;;;;;;;;;6196421;23;20001;-81
2023/03/13 07:43:23;;;;;;;13.38;3.05;;;;;;;;;;6196584;23;20020;-81
2023/03/13 07:45:59;;;;;;;8.27;2.90;;;;;;;;;;6196096;23;20028;-81
2023/03/13 07:48:28;;;;;;;13.60;3.03;;;;;;;;;;6196984;23;20152;-81
2023/03/13 07:50:54;;;;;;;12.55;3.00;;;;;;;;;;6196286;23;20000;-81
2023/03/13 07:53:20;;;;;;;12.02;3.28;;;;;;;;;;6198165;23;20001;-81
2023/03/13 07:56:00;;;;;;;13.13;3.13;;;;;;;;;;6195466;23;20324;-81
2023/03/13 07:58:27;;;;;;;11.32;2.72;;;;;;;;;;6194863;23;20017;-81
2023/03/13 08:00:53;;;;;;;12.60;2.72;;;;;;;;;;6195050;23;20382;-81
2023/03/13 08:03:20;;;;;;;8.35;2.92;;;;;;;;;;6168696;23;19997;-81
2023/03/13 08:05:46;;;;;;;13.35;2.88;;;;;;;;;;6194249;23;20005;-82
2023/03/13 08:08:12;;;;;;;10.63;2.22;;;;;;;;;;6193856;23;20007;-81
2023/03/13 08:10:39;;;;;;;9.65;2.40;;;;;;;;;;6195423;23;20017;-81
2023/03/13 08:13:05;;;;;;;11.63;3.30;;;;;;;;;;6194213;23;20116;-81
2023/03/13 08:15:31;;;;;;;11.30;3.08;;;;;;;;;;6194357;23;20009;-81
2023/03/13 08:17:57;;;;;;;10.90;2.20;;;;;;;;;;6195560;23;20001;-82
2023/03/13 08:20:23;;;;;;;11.98;2.28;;;;;;;;;;6194046;23;20005;-82
2023/03/13 08:22:49;;;;;;;11.30;2.08;;;;;;;;;;6195141;23;19993;-81
2023/03/13 08:25:16;;;;;;;9.10;2.22;;;;;;;;;;6195289;23;20525;-82
2023/03/13 08:27:42;;;;;;;9.07;2.05;;;;;;;;;;6195415;23;20055;-82
2023/03/13 08:30:08;;;;;;;8.48;2.00;;;;;;;;;;6195692;23;20012;-82
2023/03/13 08:32:37;;;;;;;8.63;2.20;;;;;;;;;;6194750;23;20451;-82
2023/03/13 08:35:03;;;;;;;8.65;2.08;;;;;;;;;;6195364;23;19996;-82
2023/03/13 08:37:29;;;;;;;8.15;1.88;;;;;;;;;;6191881;23;20001;-82
2023/03/13 08:39:55;;;;;;;9.02;2.45;;;;;;;;;;6195521;23;20076;-82
2023/03/13 08:42:22;;;;;;;7.20;2.00;;;;;;;;;;6194116;23;20435;-82
2023/03/13 08:45:02;;;;;;;6.10;2.15;;;;;;;;;;6191367;23;20093;-82
2023/03/13 08:47:28;;;;;;;10.38;1.80;;;;;;;;;;6193246;23;20015;-82
2023/03/13 08:50:03;;;;;;;8.20;2.03;;;;;;;;;;6193166;23;20017;-82
2023/03/13 08:52:37;;;;;;;9.43;2.00;;;;;;;;;;6193346;23;20005;-82
2023/03/13 08:55:03;;;;;;;9.07;2.58;;;;;;;;;;6194496;23;20391;-82
2023/03/13 08:57:29;;;;;;;7.78;2.22;;;;;;;;;;6193399;23;20004;-82
2023/03/13 08:59:55;;;;;;;9.48;2.65;;;;;;;;;;6192805;23;20017;-82
2023/03/13 09:02:21;;;;;;;8.35;2.20;;;;;;;;;;6193109;23;20005;-82
2023/03/13 09:04:47;;;;;;;8.70;2.28;;;;;;;;;;6193155;23;20364;-82
2023/03/13 09:07:13;;;;;;;11.68;2.40;;;;;;;;;;6191058;23;20039;-82
2023/03/13 09:09:39;;;;;;;12.30;3.00;;;;;;;;;;6192615;23;19999;-82
2023/03/13 09:12:05;;;;;;;12.00;2.42;;;;;;;;;;6190023;23;19997;-82
2023/03/13 09:14:31;;;;;;;13.77;2.65;;;;;;;;;;6190753;23;20371;-82
2023/03/13 09:16:58;;;;;;;11.93;2.50;;;;;;;;;;6191100;23;20482;-82
2023/03/13 09:19:24;;;;;;;9.85;2.40;;;;;;;;;;6190646;23;19997;-82
2023/03/13 09:21:50;;;;;;;8.48;1.85;;;;;;;;;;6190202;23;19997;-82
2023/03/13 09:24:16;;;;;;;10.65;2.38;;;;;;;;;;6189436;23;20419;-82
2023/03/13 09:26:42;;;;;;;8.68;2.63;;;;;;;;;;6163324;23;20005;-82
2023/03/13 09:29:09;;;;;;;6.40;1.67;;;;;;;;;;6190605;23;20006;-82
2023/03/13 09:31:37;;;;;;;10.60;2.70;;;;;;;;;;6189927;23;19993;-82
2023/03/13 09:34:03;;;;;;;9.48;2.35;;;;;;;;;;6162270;23;20031;-81
2023/03/13 09:36:46;;;;;;;11.13;2.45;;;;;;;;;;6188576;23;19997;-81
2023/03/13 09:39:12;;;;;;;15.15;2.08;;;;;;;;;;6188880;23;20438;-81
2023/03/13 09:41:42;;;;;;;10.20;2.50;;;;;;;;;;6187737;23;20077;-82
2023/03/13 09:44:20;;;;;;;14.05;2.42;;;;;;;;;;6189232;23;20420;-82
2023/03/13 09:46:53;;;;;;;13.00;2.10;;;;;;;;;;6204888;23;19992;-82
2023/03/13 09:49:31;;;;;;;11.93;2.60;;;;;;;;;;6205844;23;20012;-82
2023/03/13 09:52:15;;;;;;;12.38;2.20;;;;;;;;;;6200281;23;20419;-82
2023/03/13 09:55:02;;;;;;;15.35;3.35;;;;;;;;;;6196183;23;19997;-82
2023/03/13 09:57:28;;;;;;;15.27;2.40;;;;;;;;;;6196925;23;20028;-82
2023/03/13 10:00:05;;;;;;;11.40;2.53;;;;;;;;;;6196360;23;20016;-82
2023/03/13 10:02:32;;;;;;;12.85;2.75;;;;;;;;;;6170330;23;20069;-82
2023/03/13 10:05:01;;;;;;;13.63;2.45;;;;;;;;;;6195420;23;20005;-82
2023/03/13 10:07:27;;;;;;;11.57;1.92;;;;;;;;;;6195393;23;20391;-82
2023/03/13 10:09:53;;;;;;;11.20;2.25;;;;;;;;;;6192126;23;20455;-82
2023/03/13 10:12:20;;;;;;;13.80;2.80;;;;;;;;;;6193070;23;20049;-82
2023/03/13 10:14:46;;;;;;;14.00;2.40;;;;;;;;;;6191174;23;19997;-82
2023/03/13 10:17:15;;;;;;;12.25;3.50;;;;;;;;;;6194248;23;20032;-82
2023/03/13 10:19:46;;;;;;;11.45;2.80;;;;;;;;;;6192595;23;20002;-82
2023/03/13 10:22:19;;;;;;;15.00;2.55;;;;;;;;;;6192236;23;20080;-82
2023/03/13 10:24:51;;;;;;;13.30;2.45;;;;;;;;;;6191356;23;19997;-82
2023/03/13 10:27:17;;;;;;;15.65;2.80;;;;;;;;;;6189867;23;20008;-82
2023/03/13 10:29:43;;;;;;;13.32;2.60;;;;;;;;;;6191105;23;20048;-82
2023/03/13 10:32:12;;;;;;;12.23;2.40;;;;;;;;;;6193152;23;20001;-82
2023/03/13 10:34:59;;;;;;;15.77;3.15;;;;;;;;;;6192053;23;20420;-82
2023/03/13 10:37:25;;;;;;;15.07;3.13;;;;;;;;;;6166263;23;20009;-82
2023/03/13 10:39:51;;;;;;;14.45;2.53;;;;;;;;;;6194007;23;20020;-82
2023/03/13 10:42:17;;;;;;;10.88;2.08;;;;;;;;;;6192691;23;20320;-82
2023/03/13 10:44:44;;;;;;;13.75;2.47;;;;;;;;;;6193838;23;20076;-82
2023/03/13 10:47:12;;;;;;;14.82;2.60;;;;;;;;;;6194783;23;20001;-82
2023/03/13 10:49:46;;;;;;;15.07;3.03;;;;;;;;;;6195265;23;20051;-82
2023/03/13 10:52:27;;;;;;;13.68;3.13;;;;;;;;;;6190911;23;20008;-82
2023/03/13 10:54:58;;;;;;;10.75;1.88;;;;;;;;;;6189840;23;20027;-81
2023/03/13 10:57:24;;;;;;;11.93;2.10;;;;;;;;;;6193175;23;20001;-82
2023/03/13 10:59:51;;;;;;;11.25;1.95;;;;;;;;;;6192020;23;20086;-82
2023/03/13 11:02:29;;;;;;;15.88;2.55;;;;;;;;;;6165787;23;20001;-82
2023/03/13 11:05:22;;;;;;;10.20;2.15;;;;;;;;;;6192942;23;20085;-82
2023/03/13 11:07:48;;;;;;;13.00;2.38;;;;;;;;;;6192756;23;20009;-82
2023/03/13 11:10:25;;;;;;;11.95;2.40;;;;;;;;;;6192979;23;20003;-82
2023/03/13 11:12:55;;;;;;;9.60;2.22;;;;;;;;;;6191749;23;20005;-81
2023/03/13 11:15:28;;;;;;;7.55;2.03;;;;;;;;;;6201866;23;20001;-82
2023/03/13 11:17:59;;;;;;;6.78;2.30;;;;;;;;;;6205661;23;20000;-81
2023/03/13 11:20:24;;;;;;;;;;;;;;;;;;6205041;23;20000;-82
2023/03/13 11:22:50;;;;;;;11.10;1.83;;;;;;;;;;6200047;23;19967;-81
2023/03/13 11:25:21;;;;;;;9.07;2.22;;;;;;;;;;6193050;23;20008;-82
2023/03/13 11:28:05;;;;;;;10.93;2.20;;;;;;;;;;6193314;23;20032;-82
2023/03/13 11:30:54;;;;;;;10.40;2.35;;;;;;;;;;6164491;23;19997;-82
2023/03/13 11:33:29;;;;;;;8.82;1.35;;;;;;;;;;6163361;23;20084;-81
2023/03/13 11:36:00;;;;;;;14.77;2.90;;;;;;;;;;6188657;23;20001;-81
2023/03/13 11:38:37;;;;;;;15.63;2.83;;;;;;;;;;6187900;23;20047;-81
2023/03/13 11:41:07;;;;;;;11.15;2.58;;;;;;;;;;6188189;23;20371;-82
2023/03/13 11:43:33;;;;;;;;;;;;;;;;;;6188271;23;20005;-82
2023/03/13 11:46:33;;;;;;;11.90;2.17;;;;;;;;;;6187897;23;20054;-82
2023/03/13 11:48:59;;;;;;;16.45;2.35;;;;;;;;;;6187843;23;20008;-82
2023/03/13 11:51:44;;;;;;;17.10;3.08;;;;;;;;;;6187481;23;19997;-82
2023/03/13 11:54:13;;;;;;;12.88;2.92;;;;;;;;;;6187755;23;20005;-82
2023/03/13 11:56:43;;;;;;;11.07;2.25;;;;;;;;;;6206002;23;20001;-82
2023/03/13 11:59:12;;;;;;;14.85;2.38;;;;;;;;;;6185941;23;20040;-82
2023/03/13 12:01:41;;;;;;;10.67;2.67;;;;;;;;;;6193520;23;20008;-82
2023/03/13 12:04:25;;;;;;;14.55;2.20;;;;;;;;;;6187047;23;20324;-82
2023/03/13 12:07:19;;;;;;;13.18;2.70;;;;;;;;;;6187102;23;20028;-82
2023/03/13 12:09:49;;;;;;;15.63;2.60;;;;;;;;;;6187090;23;20087;-82
2023/03/13 12:12:20;;;;;;;14.80;2.47;;;;;;;;;;6187869;23;20020;-82
2023/03/13 12:14:52;;;;;;;13.70;3.15;;;;;;;;;;6187298;23;20005;-82
2023/03/13 12:17:21;;;;;;;9.68;2.17;;;;;;;;;;6187050;23;20001;-82
2023/03/13 12:19:53;;;;;;;11.98;2.65;;;;;;;;;;6187412;23;20004;-83
2023/03/13 12:25:44;;;;;;;17.02;2.20;;;;;;;;;;6187147;23;20383;-82
2023/03/13 12:28:25;;;;;;;18.77;2.70;;;;;;;;;;6187214;23;20035;-82
2023/03/13 12:31:17;;;;;;;13.52;2.75;;;;;;;;;;6187117;23;20004;-82
2023/03/13 12:33:59;;;;;;;13.07;2.35;;;;;;;;;;6163862;23;20126;-82
2023/03/13 12:36:48;;;;;;;15.93;3.25;;;;;;;;;;6185257;23;20008;-83
2023/03/13 12:39:20;;;;;;;19.83;2.75;;;;;;;;;;6186925;23;20434;-82
2023/03/13 12:41:55;;;;;;;16.48;2.97;;;;;;;;;;6186962;23;20068;-82
2023/03/13 12:44:23;;;;;;;17.23;2.75;;;;;;;;;;6186629;23;20004;-82
2023/03/13 12:46:58;;;;;;;14.07;2.28;;;;;;;;;;6186577;23;20592;-82
2023/03/13 12:49:39;;;;;;;13.85;2.50;;;;;;;;;;6186626;23;20005;-82
2023/03/13 12:52:25;;;;;;;22.48;2.75;;;;;;;;;;6186503;23;19997;-82
2023/03/13 12:54:51;;;;;;;16.38;3.28;;;;;;;;;;6187016;23;20028;-82
2023/03/13 12:57:35;;;;;;;15.45;2.28;;;;;;;;;;6187000;23;20012;-82
2023/03/13 13:00:05;;;;;;;17.15;3.17;;;;;;;;;;6186888;23;20067;-82
2023/03/13 13:02:31;;;;;;;18.95;2.97;;;;;;;;;;6186763;23;20327;-81
2023/03/13 13:05:33;;;;;;;15.48;3.10;;;;;;;;;;6186497;23;20005;-82
2023/03/13 13:08:24;;;;;;;17.92;3.15;;;;;;;;;;6186578;23;20001;-82
2023/03/13 13:10:50;;;;;;;17.13;3.20;;;;;;;;;;6160180;23;20051;-82
2023/03/13 13:13:18;;;;;;;11.27;2.13;;;;;;;;;;6186463;23;20001;-82
2023/03/13 13:15:47;;;;;;;11.20;2.88;;;;;;;;;;6194473;23;20005;-82
2023/03/13 13:18:30;;;;;;;21.88;3.22;;;;;;;;;;6195802;23;20005;-82
2023/03/13 13:21:02;;;;;;;13.23;2.58;;;;;;;;;;6186640;23;20001;-82
2023/03/13 13:23:32;;;;;;;12.63;2.33;;;;;;;;;;6186845;23;20004;-82
2023/03/13 13:26:18;;;;;;;24.58;3.70;;;;;;;;;;6186466;23;19997;-82
2023/03/13 13:28:46;;;;;;;14.30;2.60;;;;;;;;;;6186613;23;20458;-82
2023/03/13 13:31:31;;;;;;;18.23;2.83;;;;;;;;;;6186433;23;20001;-82
2023/03/13 13:33:57;;;;;;;13.20;2.65;;;;;;;;;;6189274;23;20323;-82
2023/03/13 13:36:27;;;;;;;17.38;3.63;;;;;;;;;;6191094;23;20084;-83
2023/03/13 13:38:54;;;;;;;15.40;2.28;;;;;;;;;;6186297;23;20371;-82
2023/03/13 13:41:24;;;;;;;14.68;2.60;;;;;;;;;;6185678;23;20372;-83
2023/03/13 13:44:10;;;;;;;18.88;2.80;;;;;;;;;;6160423;23;20072;-82
2023/03/13 13:46:44;;;;;;;20.58;2.75;;;;;;;;;;6188424;23;20040;-82
2023/03/13 13:49:16;;;;;;;15.27;3.05;;;;;;;;;;6189529;23;20033;-83
2023/03/13 13:52:08;;;;;;;18.10;2.95;;;;;;;;;;6188801;23;20012;-81
2023/03/13 13:54:44;;;;;;;26.45;4.63;;;;;;;;;;6159953;23;20005;-81
2023/03/13 13:57:20;;;;;;;17.58;2.80;;;;;;;;;;6188173;23;20063;-81
2023/03/13 13:59:50;;;;;;;18.38;2.53;;;;;;;;;;6186584;23;20509;-81
2023/03/13 14:02:21;;;;;;;18.05;2.58;;;;;;;;;;6186366;23;20001;-81
2023/03/13 14:05:05;;;;;;;13.07;3.30;;;;;;;;;;6190955;23;20372;-81
2023/03/13 14:07:34;;;;;;;18.25;3.53;;;;;;;;;;6188196;23;20498;-81
2023/03/13 14:10:06;;;;;;;20.42;3.35;;;;;;;;;;6188424;23;19997;-81
2023/03/13 14:12:37;;;;;;;16.50;2.80;;;;;;;;;;6188495;23;20367;-81
2023/03/13 14:15:09;;;;;;;18.60;3.33;;;;;;;;;;6188707;23;20004;-81
2023/03/13 14:17:43;;;;;;;22.52;3.95;;;;;;;;;;6192092;23;20429;-83
2023/03/13 14:20:23;;;;;;;19.75;3.50;;;;;;;;;;6189144;23;20020;-82
2023/03/13 14:22:50;;;;;;;16.50;3.17;;;;;;;;;;6188464;23;19997;-81
2023/03/13 14:25:16;;;;;;;19.42;3.25;;;;;;;;;;6188377;23;20120;-81
2023/03/13 14:27:43;;;;;;;18.05;3.05;;;;;;;;;;6187972;23;19998;-81
2023/03/13 14:30:10;;;;;;;16.92;3.28;;;;;;;;;;6188029;23;20068;-81
2023/03/13 14:32:36;;;;;;;22.95;3.47;;;;;;;;;;6188028;23;20025;-81
2023/03/13 14:38:11;;;;;;;21.40;3.67;;;;;;;;;;6187840;23;20008;-81
2023/03/13 14:40:38;;;;;;;22.65;4.00;;;;;;;;;;6189592;23;20140;-81
2023/03/13 14:43:04;;;;;;;21.05;3.42;;;;;;;;;;6194124;23;20007;-81
2023/03/13 14:45:31;;;;;;;21.42;3.08;;;;;;;;;;6194655;23;20001;-82
2023/03/13 14:48:18;;;;;;;19.05;3.80;;;;;;;;;;6196104;23;20040;-83
2023/03/13 14:50:44;;;;;;;20.38;4.10;;;;;;;;;;6190682;23;20450;-81
2023/03/13 14:53:12;;;;;;;26.13;3.88;;;;;;;;;;6190998;23;20494;-81